sensor_id;sensor_type;location;lat;lon;timestamp;P1;durP1;ratioP1;P2;durP2;ratioP2
30617;SDS011;17384;51.214;9.202;2024-02-04T00:02:22;8.93;;;4.75;;
30617;SDS011;17384;51.214;9.202;2024-02-04T00:04:49;11.65;;;6.25;;
30617;SDS011;17384;51.214;9.202;2024-02-04T00:07:15;8.55;;;5.93;;
30617;SDS011;17384;51.214;9.202;2024-02-04T00:09:41;10.80;;;6.07;;
30617;SDS011;17384;51.214;9.202;2024-02-04T00:12:08;10.68;;;6.07;;
30617;SDS011;17384;51.214;9.202;2024-02-04T00:14:34;7.70;;;4.82;;
30617;SDS011;17384;51.214;9.202;2024-02-04T00:17:00;14.00;;;6.55;;
30617;SDS011;17384;51.214;9.202;2024-02-04T00:19:25;9.98;;;5.47;;
30617;SDS011;17384;51.214;9.202;2024-02-04T00:21:51;15.48;;;6.25;;
30617;SDS011;17384;51.214;9.202;2024-02-04T00:24:17;10.45;;;5.93;;
30617;SDS011;17384;51.214;9.202;2024-02-04T00:26:44;10.15;;;6.65;;
30617;SDS011;17384;51.214;9.202;2024-02-04T00:29:09;10.23;;;5.47;;
30617;SDS011;17384;51.214;9.202;2024-02-04T00:31:35;10.55;;;6.50;;
30617;SDS011;17384;51.214;9.202;2024-02-04T00:34:00;11.65;;;5.55;;
30617;SDS011;17384;51.214;9.202;2024-02-04T00:36:26;10.98;;;5.47;;
30617;SDS011;17384;51.214;9.202;2024-02-04T00:38:51;9.10;;;4.68;;
30617;SDS011;17384;51.214;9.202;2024-02-04T00:41:17;8.85;;;5.55;;
30617;SDS011;17384;51.214;9.202;2024-02-04T00:43:42;13.43;;;5.88;;
30617;SDS011;17384;51.214;9.202;2024-02-04T00:46:08;7.43;;;5.30;;
30617;SDS011;17384;51.214;9.202;2024-02-04T00:48:35;9.73;;;4.90;;
30617;SDS011;17384;51.214;9.202;2024-02-04T00:51:01;9.68;;;5.07;;
30617;SDS011;17384;51.214;9.202;2024-02-04T00:53:27;6.30;;;4.40;;
30617;SDS011;17384;51.214;9.202;2024-02-04T00:55:58;8.27;;;4.20;;
30617;SDS011;17384;51.214;9.202;2024-02-04T00:58:25;6.63;;;4.40;;
30617;SDS011;17384;51.214;9.202;2024-02-04T01:00:50;8.77;;;4.85;;
30617;SDS011;17384;51.214;9.202;2024-02-04T01:03:16;6.03;;;4.18;;
30617;SDS011;17384;51.214;9.202;2024-02-04T01:05:41;7.60;;;4.45;;
30617;SDS011;17384;51.214;9.202;2024-02-04T01:08:06;7.25;;;4.03;;
30617;SDS011;17384;51.214;9.202;2024-02-04T01:10:32;7.40;;;4.35;;
30617;SDS011;17384;51.214;9.202;2024-02-04T01:12:57;6.70;;;3.90;;
30617;SDS011;17384;51.214;9.202;2024-02-04T01:15:22;6.60;;;3.67;;
30617;SDS011;17384;51.214;9.202;2024-02-04T01:17:48;8.60;;;4.82;;
30617;SDS011;17384;51.214;9.202;2024-02-04T01:20:13;6.40;;;3.40;;
30617;SDS011;17384;51.214;9.202;2024-02-04T01:22:39;4.60;;;3.50;;
30617;SDS011;17384;51.214;9.202;2024-02-04T01:25:05;5.80;;;3.65;;
30617;SDS011;17384;51.214;9.202;2024-02-04T01:27:31;4.50;;;3.30;;
30617;SDS011;17384;51.214;9.202;2024-02-04T01:29:56;4.10;;;3.22;;
30617;SDS011;17384;51.214;9.202;2024-02-04T01:32:22;6.50;;;3.30;;
30617;SDS011;17384;51.214;9.202;2024-02-04T01:34:47;4.22;;;3.08;;
30617;SDS011;17384;51.214;9.202;2024-02-04T01:37:13;6.88;;;3.65;;
30617;SDS011;17384;51.214;9.202;2024-02-04T01:39:38;4.97;;;2.70;;
30617;SDS011;17384;51.214;9.202;2024-02-04T01:42:04;5.55;;;3.03;;
30617;SDS011;17384;51.214;9.202;2024-02-04T01:44:30;7.00;;;2.83;;
30617;SDS011;17384;51.214;9.202;2024-02-04T01:46:55;4.40;;;2.92;;
30617;SDS011;17384;51.214;9.202;2024-02-04T01:49:22;6.78;;;3.75;;
30617;SDS011;17384;51.214;9.202;2024-02-04T01:51:47;5.40;;;3.30;;
30617;SDS011;17384;51.214;9.202;2024-02-04T01:54:13;4.55;;;3.22;;
30617;SDS011;17384;51.214;9.202;2024-02-04T01:56:39;6.35;;;3.35;;
30617;SDS011;17384;51.214;9.202;2024-02-04T01:59:05;5.03;;;3.85;;
30617;SDS011;17384;51.214;9.202;2024-02-04T02:01:31;5.05;;;3.13;;
30617;SDS011;17384;51.214;9.202;2024-02-04T02:03:57;5.93;;;3.25;;
30617;SDS011;17384;51.214;9.202;2024-02-04T02:06:23;6.75;;;3.50;;
30617;SDS011;17384;51.214;9.202;2024-02-04T02:08:48;5.10;;;3.53;;
30617;SDS011;17384;51.214;9.202;2024-02-04T02:11:19;4.07;;;3.15;;
30617;SDS011;17384;51.214;9.202;2024-02-04T02:14:05;4.43;;;3.30;;
30617;SDS011;17384;51.214;9.202;2024-02-04T02:16:36;5.32;;;3.60;;
30617;SDS011;17384;51.214;9.202;2024-02-04T02:26:55;5.43;;;3.63;;
30617;SDS011;17384;51.214;9.202;2024-02-04T02:29:23;5.32;;;3.65;;
30617;SDS011;17384;51.214;9.202;2024-02-04T02:31:49;4.97;;;3.75;;
30617;SDS011;17384;51.214;9.202;2024-02-04T02:34:15;6.35;;;3.78;;
30617;SDS011;17384;51.214;9.202;2024-02-04T02:36:43;4.03;;;3.33;;
30617;SDS011;17384;51.214;9.202;2024-02-04T02:39:14;5.88;;;3.30;;
30617;SDS011;17384;51.214;9.202;2024-02-04T02:41:44;5.50;;;4.03;;
30617;SDS011;17384;51.214;9.202;2024-02-04T02:44:13;4.43;;;3.30;;
30617;SDS011;17384;51.214;9.202;2024-02-04T02:46:41;6.10;;;3.17;;
30617;SDS011;17384;51.214;9.202;2024-02-04T02:49:06;4.32;;;3.35;;
30617;SDS011;17384;51.214;9.202;2024-02-04T02:51:33;4.35;;;3.22;;
30617;SDS011;17384;51.214;9.202;2024-02-04T02:53:58;6.28;;;3.15;;
30617;SDS011;17384;51.214;9.202;2024-02-04T02:56:23;4.13;;;3.15;;
30617;SDS011;17384;51.214;9.202;2024-02-04T02:58:49;5.07;;;3.47;;
30617;SDS011;17384;51.214;9.202;2024-02-04T03:01:14;4.38;;;3.17;;
30617;SDS011;17384;51.214;9.202;2024-02-04T03:03:40;5.68;;;3.15;;
30617;SDS011;17384;51.214;9.202;2024-02-04T03:06:05;4.72;;;3.42;;
30617;SDS011;17384;51.214;9.202;2024-02-04T03:08:31;7.03;;;3.13;;
30617;SDS011;17384;51.214;9.202;2024-02-04T03:10:57;3.83;;;2.90;;
30617;SDS011;17384;51.214;9.202;2024-02-04T03:13:22;5.40;;;3.05;;
30617;SDS011;17384;51.214;9.202;2024-02-04T03:15:47;6.63;;;3.25;;
30617;SDS011;17384;51.214;9.202;2024-02-04T03:18:13;4.25;;;3.38;;
30617;SDS011;17384;51.214;9.202;2024-02-04T03:20:38;4.10;;;3.40;;
30617;SDS011;17384;51.214;9.202;2024-02-04T03:23:04;4.22;;;3.20;;
30617;SDS011;17384;51.214;9.202;2024-02-04T03:25:29;3.97;;;3.05;;
30617;SDS011;17384;51.214;9.202;2024-02-04T03:27:55;5.22;;;3.85;;
30617;SDS011;17384;51.214;9.202;2024-02-04T03:30:20;7.43;;;3.70;;
30617;SDS011;17384;51.214;9.202;2024-02-04T03:32:46;11.70;;;4.45;;
30617;SDS011;17384;51.214;9.202;2024-02-04T03:35:12;5.97;;;4.50;;
30617;SDS011;17384;51.214;9.202;2024-02-04T03:37:37;8.90;;;5.90;;
30617;SDS011;17384;51.214;9.202;2024-02-04T03:40:03;7.25;;;4.65;;
30617;SDS011;17384;51.214;9.202;2024-02-04T03:42:28;7.80;;;5.53;;
30617;SDS011;17384;51.214;9.202;2024-02-04T03:44:54;8.90;;;5.43;;
30617;SDS011;17384;51.214;9.202;2024-02-04T03:47:20;6.93;;;5.32;;
30617;SDS011;17384;51.214;9.202;2024-02-04T03:49:46;7.93;;;5.60;;
30617;SDS011;17384;51.214;9.202;2024-02-04T03:52:11;7.32;;;4.78;;
30617;SDS011;17384;51.214;9.202;2024-02-04T03:54:37;5.97;;;4.68;;
30617;SDS011;17384;51.214;9.202;2024-02-04T03:57:02;5.45;;;4.60;;
30617;SDS011;17384;51.214;9.202;2024-02-04T03:59:28;6.32;;;4.72;;
30617;SDS011;17384;51.214;9.202;2024-02-04T04:01:53;7.28;;;4.30;;
30617;SDS011;17384;51.214;9.202;2024-02-04T04:04:19;4.43;;;3.78;;
30617;SDS011;17384;51.214;9.202;2024-02-04T04:06:45;4.05;;;3.25;;
30617;SDS011;17384;51.214;9.202;2024-02-04T04:09:11;3.05;;;2.78;;
30617;SDS011;17384;51.214;9.202;2024-02-04T04:11:37;4.90;;;2.85;;
30617;SDS011;17384;51.214;9.202;2024-02-04T04:14:03;3.72;;;2.63;;
30617;SDS011;17384;51.214;9.202;2024-02-04T04:16:28;3.40;;;2.85;;
30617;SDS011;17384;51.214;9.202;2024-02-04T04:18:54;2.28;;;2.08;;
30617;SDS011;17384;51.214;9.202;2024-02-04T04:21:20;2.80;;;2.17;;
30617;SDS011;17384;51.214;9.202;2024-02-04T04:23:45;3.35;;;2.20;;
30617;SDS011;17384;51.214;9.202;2024-02-04T04:26:11;1.77;;;1.67;;
30617;SDS011;17384;51.214;9.202;2024-02-04T04:28:36;1.85;;;1.48;;
30617;SDS011;17384;51.214;9.202;2024-02-04T04:31:01;1.70;;;1.60;;
30617;SDS011;17384;51.214;9.202;2024-02-04T04:33:27;2.50;;;1.70;;
30617;SDS011;17384;51.214;9.202;2024-02-04T04:35:52;1.40;;;1.30;;
30617;SDS011;17384;51.214;9.202;2024-02-04T04:38:18;5.65;;;1.10;;
30617;SDS011;17384;51.214;9.202;2024-02-04T04:40:43;1.33;;;1.23;;
30617;SDS011;17384;51.214;9.202;2024-02-04T04:43:09;1.60;;;1.15;;
30617;SDS011;17384;51.214;9.202;2024-02-04T04:45:34;2.40;;;1.10;;
30617;SDS011;17384;51.214;9.202;2024-02-04T04:47:59;0.80;;;0.80;;
30617;SDS011;17384;51.214;9.202;2024-02-04T04:50:25;1.90;;;0.85;;
30617;SDS011;17384;51.214;9.202;2024-02-04T04:52:50;0.60;;;0.60;;
30617;SDS011;17384;51.214;9.202;2024-02-04T04:55:16;1.52;;;0.95;;
30617;SDS011;17384;51.214;9.202;2024-02-04T04:57:41;0.93;;;0.77;;
30617;SDS011;17384;51.214;9.202;2024-02-04T05:00:07;0.60;;;0.60;;
30617;SDS011;17384;51.214;9.202;2024-02-04T05:02:35;0.52;;;0.50;;
30617;SDS011;17384;51.214;9.202;2024-02-04T05:05:01;0.60;;;0.60;;
30617;SDS011;17384;51.214;9.202;2024-02-04T05:07:26;1.67;;;0.63;;
30617;SDS011;17384;51.214;9.202;2024-02-04T05:09:52;2.45;;;0.60;;
30617;SDS011;17384;51.214;9.202;2024-02-04T05:12:18;0.80;;;0.80;;
30617;SDS011;17384;51.214;9.202;2024-02-04T05:14:43;0.60;;;0.60;;
30617;SDS011;17384;51.214;9.202;2024-02-04T05:17:09;0.70;;;0.70;;
30617;SDS011;17384;51.214;9.202;2024-02-04T05:19:35;0.60;;;0.60;;
30617;SDS011;17384;51.214;9.202;2024-02-04T05:22:01;0.60;;;0.60;;
30617;SDS011;17384;51.214;9.202;2024-02-04T05:24:26;0.57;;;0.57;;
30617;SDS011;17384;51.214;9.202;2024-02-04T05:26:52;0.73;;;0.70;;
30617;SDS011;17384;51.214;9.202;2024-02-04T05:29:17;0.52;;;0.52;;
30617;SDS011;17384;51.214;9.202;2024-02-04T05:31:43;0.95;;;0.80;;
30617;SDS011;17384;51.214;9.202;2024-02-04T05:34:09;0.65;;;0.65;;
30617;SDS011;17384;51.214;9.202;2024-02-04T05:36:37;0.50;;;0.50;;
30617;SDS011;17384;51.214;9.202;2024-02-04T05:39:13;0.77;;;0.60;;
30617;SDS011;17384;51.214;9.202;2024-02-04T05:41:40;1.00;;;1.00;;
30617;SDS011;17384;51.214;9.202;2024-02-04T05:44:07;0.80;;;0.80;;
30617;SDS011;17384;51.214;9.202;2024-02-04T05:46:34;0.70;;;0.70;;
30617;SDS011;17384;51.214;9.202;2024-02-04T05:49:02;3.40;;;1.23;;
30617;SDS011;17384;51.214;9.202;2024-02-04T05:51:28;1.05;;;0.95;;
30617;SDS011;17384;51.214;9.202;2024-02-04T05:53:54;3.92;;;1.20;;
30617;SDS011;17384;51.214;9.202;2024-02-04T05:56:20;1.48;;;1.38;;
30617;SDS011;17384;51.214;9.202;2024-02-04T05:58:46;1.45;;;1.25;;
30617;SDS011;17384;51.214;9.202;2024-02-04T06:01:12;1.95;;;1.67;;
30617;SDS011;17384;51.214;9.202;2024-02-04T06:03:37;1.45;;;1.35;;
30617;SDS011;17384;51.214;9.202;2024-02-04T06:06:03;3.80;;;1.75;;
30617;SDS011;17384;51.214;9.202;2024-02-04T06:08:29;1.73;;;1.40;;
30617;SDS011;17384;51.214;9.202;2024-02-04T06:10:54;1.92;;;1.63;;
30617;SDS011;17384;51.214;9.202;2024-02-04T06:13:20;2.13;;;1.83;;
30617;SDS011;17384;51.214;9.202;2024-02-04T06:15:45;2.22;;;2.03;;
30617;SDS011;17384;51.214;9.202;2024-02-04T06:18:11;4.28;;;2.20;;
30617;SDS011;17384;51.214;9.202;2024-02-04T06:20:37;2.25;;;2.00;;
30617;SDS011;17384;51.214;9.202;2024-02-04T06:23:02;2.35;;;1.95;;
30617;SDS011;17384;51.214;9.202;2024-02-04T06:25:28;3.15;;;2.38;;
30617;SDS011;17384;51.214;9.202;2024-02-04T06:27:53;5.22;;;2.45;;
30617;SDS011;17384;51.214;9.202;2024-02-04T06:30:18;2.63;;;2.25;;
30617;SDS011;17384;51.214;9.202;2024-02-04T06:32:44;4.38;;;2.53;;
30617;SDS011;17384;51.214;9.202;2024-02-04T06:35:13;3.60;;;2.42;;
30617;SDS011;17384;51.214;9.202;2024-02-04T06:37:40;3.35;;;2.53;;
30617;SDS011;17384;51.214;9.202;2024-02-04T06:40:06;3.22;;;2.50;;
30617;SDS011;17384;51.214;9.202;2024-02-04T06:42:32;5.20;;;2.58;;
30617;SDS011;17384;51.214;9.202;2024-02-04T06:44:57;3.80;;;2.40;;
30617;SDS011;17384;51.214;9.202;2024-02-04T06:47:23;3.55;;;2.63;;
30617;SDS011;17384;51.214;9.202;2024-02-04T06:49:48;3.40;;;2.15;;
30617;SDS011;17384;51.214;9.202;2024-02-04T06:52:13;2.65;;;2.10;;
30617;SDS011;17384;51.214;9.202;2024-02-04T06:54:39;3.40;;;1.88;;
30617;SDS011;17384;51.214;9.202;2024-02-04T06:57:04;1.83;;;1.63;;
30617;SDS011;17384;51.214;9.202;2024-02-04T06:59:30;3.08;;;2.50;;
30617;SDS011;17384;51.214;9.202;2024-02-04T07:01:55;3.30;;;1.80;;
30617;SDS011;17384;51.214;9.202;2024-02-04T07:04:20;2.50;;;1.95;;
30617;SDS011;17384;51.214;9.202;2024-02-04T07:06:49;2.90;;;2.17;;
30617;SDS011;17384;51.214;9.202;2024-02-04T07:09:16;4.93;;;1.50;;
30617;SDS011;17384;51.214;9.202;2024-02-04T07:11:41;4.15;;;2.10;;
30617;SDS011;17384;51.214;9.202;2024-02-04T07:14:06;3.58;;;2.00;;
30617;SDS011;17384;51.214;9.202;2024-02-04T07:16:33;2.30;;;1.80;;
30617;SDS011;17384;51.214;9.202;2024-02-04T07:18:59;2.05;;;1.85;;
30617;SDS011;17384;51.214;9.202;2024-02-04T07:21:24;2.15;;;1.88;;
30617;SDS011;17384;51.214;9.202;2024-02-04T07:23:50;5.22;;;2.10;;
30617;SDS011;17384;51.214;9.202;2024-02-04T07:26:15;1.90;;;1.70;;
30617;SDS011;17384;51.214;9.202;2024-02-04T07:28:41;1.85;;;1.50;;
30617;SDS011;17384;51.214;9.202;2024-02-04T07:31:06;2.60;;;1.70;;
30617;SDS011;17384;51.214;9.202;2024-02-04T07:33:32;2.22;;;1.60;;
30617;SDS011;17384;51.214;9.202;2024-02-04T07:35:57;1.38;;;1.27;;
30617;SDS011;17384;51.214;9.202;2024-02-04T07:38:23;5.75;;;2.10;;
30617;SDS011;17384;51.214;9.202;2024-02-04T07:40:48;5.28;;;2.58;;
30617;SDS011;17384;51.214;9.202;2024-02-04T07:43:14;4.43;;;2.22;;
30617;SDS011;17384;51.214;9.202;2024-02-04T07:45:39;3.72;;;2.30;;
30617;SDS011;17384;51.214;9.202;2024-02-04T07:48:05;2.25;;;1.70;;
30617;SDS011;17384;51.214;9.202;2024-02-04T07:50:30;3.22;;;2.00;;
30617;SDS011;17384;51.214;9.202;2024-02-04T07:52:56;2.83;;;1.92;;
30617;SDS011;17384;51.214;9.202;2024-02-04T07:55:21;1.85;;;1.70;;
30617;SDS011;17384;51.214;9.202;2024-02-04T07:57:46;2.25;;;1.83;;
30617;SDS011;17384;51.214;9.202;2024-02-04T08:00:12;2.78;;;2.20;;
30617;SDS011;17384;51.214;9.202;2024-02-04T08:02:38;4.82;;;2.20;;
30617;SDS011;17384;51.214;9.202;2024-02-04T08:05:04;3.72;;;2.63;;
30617;SDS011;17384;51.214;9.202;2024-02-04T08:07:30;2.88;;;2.05;;
30617;SDS011;17384;51.214;9.202;2024-02-04T08:09:56;5.38;;;2.17;;
30617;SDS011;17384;51.214;9.202;2024-02-04T08:12:22;2.17;;;1.98;;
30617;SDS011;17384;51.214;9.202;2024-02-04T08:14:47;9.38;;;3.28;;
30617;SDS011;17384;51.214;9.202;2024-02-04T08:17:13;2.75;;;2.55;;
30617;SDS011;17384;51.214;9.202;2024-02-04T08:19:39;5.18;;;2.97;;
30617;SDS011;17384;51.214;9.202;2024-02-04T08:22:05;2.90;;;2.40;;
30617;SDS011;17384;51.214;9.202;2024-02-04T08:24:31;4.07;;;3.28;;
30617;SDS011;17384;51.214;9.202;2024-02-04T08:26:57;4.47;;;2.83;;
30617;SDS011;17384;51.214;9.202;2024-02-04T08:29:23;3.47;;;2.78;;
30617;SDS011;17384;51.214;9.202;2024-02-04T08:31:49;2.92;;;2.20;;
30617;SDS011;17384;51.214;9.202;2024-02-04T08:34:15;5.78;;;3.00;;
30617;SDS011;17384;51.214;9.202;2024-02-04T08:36:41;3.75;;;3.13;;
30617;SDS011;17384;51.214;9.202;2024-02-04T08:39:06;4.75;;;2.85;;
30617;SDS011;17384;51.214;9.202;2024-02-04T08:41:32;4.30;;;3.00;;
30617;SDS011;17384;51.214;9.202;2024-02-04T08:43:57;5.03;;;3.17;;
30617;SDS011;17384;51.214;9.202;2024-02-04T08:46:23;4.70;;;3.30;;
30617;SDS011;17384;51.214;9.202;2024-02-04T08:48:48;3.85;;;2.70;;
30617;SDS011;17384;51.214;9.202;2024-02-04T08:51:13;5.10;;;3.28;;
30617;SDS011;17384;51.214;9.202;2024-02-04T08:53:41;6.18;;;3.20;;
30617;SDS011;17384;51.214;9.202;2024-02-04T08:56:07;4.78;;;3.15;;
30617;SDS011;17384;51.214;9.202;2024-02-04T08:58:34;4.07;;;2.60;;
30617;SDS011;17384;51.214;9.202;2024-02-04T09:01:02;5.38;;;3.10;;
30617;SDS011;17384;51.214;9.202;2024-02-04T09:03:27;8.15;;;3.95;;
30617;SDS011;17384;51.214;9.202;2024-02-04T09:05:53;4.93;;;3.92;;
30617;SDS011;17384;51.214;9.202;2024-02-04T09:08:18;4.28;;;3.40;;
30617;SDS011;17384;51.214;9.202;2024-02-04T09:10:44;4.57;;;2.92;;
30617;SDS011;17384;51.214;9.202;2024-02-04T09:13:09;4.15;;;3.05;;
30617;SDS011;17384;51.214;9.202;2024-02-04T09:15:34;3.67;;;2.78;;
30617;SDS011;17384;51.214;9.202;2024-02-04T09:18:00;4.82;;;3.05;;
30617;SDS011;17384;51.214;9.202;2024-02-04T09:20:25;3.50;;;2.40;;
30617;SDS011;17384;51.214;9.202;2024-02-04T09:22:51;3.85;;;2.58;;
30617;SDS011;17384;51.214;9.202;2024-02-04T09:25:17;3.85;;;2.10;;
30617;SDS011;17384;51.214;9.202;2024-02-04T09:27:42;4.03;;;2.15;;
30617;SDS011;17384;51.214;9.202;2024-02-04T09:30:08;8.20;;;3.60;;
30617;SDS011;17384;51.214;9.202;2024-02-04T09:32:33;2.30;;;2.10;;
30617;SDS011;17384;51.214;9.202;2024-02-04T09:35:00;5.35;;;2.05;;
30617;SDS011;17384;51.214;9.202;2024-02-04T09:37:26;3.15;;;2.17;;
30617;SDS011;17384;51.214;9.202;2024-02-04T09:39:51;2.97;;;2.00;;
30617;SDS011;17384;51.214;9.202;2024-02-04T09:42:19;2.10;;;1.90;;
30617;SDS011;17384;51.214;9.202;2024-02-04T09:44:47;1.88;;;1.77;;
30617;SDS011;17384;51.214;9.202;2024-02-04T09:47:14;2.88;;;2.03;;
30617;SDS011;17384;51.214;9.202;2024-02-04T09:49:40;3.63;;;1.70;;
30617;SDS011;17384;51.214;9.202;2024-02-04T09:52:08;1.40;;;1.30;;
30617;SDS011;17384;51.214;9.202;2024-02-04T09:54:44;1.23;;;1.13;;
30617;SDS011;17384;51.214;9.202;2024-02-04T09:57:11;4.68;;;1.67;;
30617;SDS011;17384;51.214;9.202;2024-02-04T09:59:38;1.30;;;1.20;;
30617;SDS011;17384;51.214;9.202;2024-02-04T10:02:04;1.30;;;1.20;;
30617;SDS011;17384;51.214;9.202;2024-02-04T10:04:30;2.45;;;1.02;;
30617;SDS011;17384;51.214;9.202;2024-02-04T10:06:56;1.13;;;1.08;;
30617;SDS011;17384;51.214;9.202;2024-02-04T10:09:22;2.15;;;1.00;;
30617;SDS011;17384;51.214;9.202;2024-02-04T10:11:47;0.82;;;0.80;;
30617;SDS011;17384;51.214;9.202;2024-02-04T10:14:13;2.47;;;0.93;;
30617;SDS011;17384;51.214;9.202;2024-02-04T10:16:39;0.80;;;0.80;;
30617;SDS011;17384;51.214;9.202;2024-02-04T10:19:05;1.75;;;1.40;;
30617;SDS011;17384;51.214;9.202;2024-02-04T10:21:30;1.00;;;1.00;;
30617;SDS011;17384;51.214;9.202;2024-02-04T10:23:56;0.95;;;0.95;;
30617;SDS011;17384;51.214;9.202;2024-02-04T10:26:22;1.15;;;1.00;;
30617;SDS011;17384;51.214;9.202;2024-02-04T10:28:47;2.70;;;0.90;;
30617;SDS011;17384;51.214;9.202;2024-02-04T10:31:14;2.70;;;1.00;;
30617;SDS011;17384;51.214;9.202;2024-02-04T10:33:40;1.35;;;0.93;;
30617;SDS011;17384;51.214;9.202;2024-02-04T10:36:05;1.60;;;1.02;;
30617;SDS011;17384;51.214;9.202;2024-02-04T10:38:31;0.90;;;0.90;;
30617;SDS011;17384;51.214;9.202;2024-02-04T10:40:59;0.80;;;0.80;;
30617;SDS011;17384;51.214;9.202;2024-02-04T10:43:31;0.85;;;0.85;;
30617;SDS011;17384;51.214;9.202;2024-02-04T10:46:00;1.05;;;0.80;;
30617;SDS011;17384;51.214;9.202;2024-02-04T10:48:29;1.83;;;1.00;;
30617;SDS011;17384;51.214;9.202;2024-02-04T10:51:06;1.70;;;0.90;;
30617;SDS011;17384;51.214;9.202;2024-02-04T10:53:39;1.73;;;0.90;;
30617;SDS011;17384;51.214;9.202;2024-02-04T10:56:07;1.33;;;1.10;;
30617;SDS011;17384;51.214;9.202;2024-02-04T10:58:47;0.90;;;0.80;;
30617;SDS011;17384;51.214;9.202;2024-02-04T11:01:13;2.55;;;0.98;;
30617;SDS011;17384;51.214;9.202;2024-02-04T11:03:39;0.80;;;0.80;;
30617;SDS011;17384;51.214;9.202;2024-02-04T11:06:06;1.08;;;1.00;;
30617;SDS011;17384;51.214;9.202;2024-02-04T11:08:33;0.80;;;0.80;;
30617;SDS011;17384;51.214;9.202;2024-02-04T11:11:00;2.83;;;0.77;;
30617;SDS011;17384;51.214;9.202;2024-02-04T11:13:25;0.90;;;0.90;;
30617;SDS011;17384;51.214;9.202;2024-02-04T11:15:53;1.05;;;0.73;;
30617;SDS011;17384;51.214;9.202;2024-02-04T11:18:30;1.13;;;0.95;;
30617;SDS011;17384;51.214;9.202;2024-02-04T11:21:32;0.70;;;0.70;;
30617;SDS011;17384;51.214;9.202;2024-02-04T11:27:02;0.68;;;0.68;;
30617;SDS011;17384;51.214;9.202;2024-02-04T11:29:28;0.63;;;0.63;;
30617;SDS011;17384;51.214;9.202;2024-02-04T11:31:54;0.70;;;0.65;;
30617;SDS011;17384;51.214;9.202;2024-02-04T11:34:19;0.60;;;0.60;;
30617;SDS011;17384;51.214;9.202;2024-02-04T11:36:45;0.93;;;0.80;;
30617;SDS011;17384;51.214;9.202;2024-02-04T11:39:14;0.60;;;0.60;;
30617;SDS011;17384;51.214;9.202;2024-02-04T11:41:49;0.70;;;0.70;;
30617;SDS011;17384;51.214;9.202;2024-02-04T11:44:21;1.35;;;1.00;;
30617;SDS011;17384;51.214;9.202;2024-02-04T11:46:48;0.63;;;0.63;;
30617;SDS011;17384;51.214;9.202;2024-02-04T11:49:15;0.73;;;0.70;;
30617;SDS011;17384;51.214;9.202;2024-02-04T11:51:44;0.90;;;0.90;;
30617;SDS011;17384;51.214;9.202;2024-02-04T11:54:14;1.83;;;1.10;;
30617;SDS011;17384;51.214;9.202;2024-02-04T11:56:41;4.45;;;1.40;;
30617;SDS011;17384;51.214;9.202;2024-02-04T11:59:07;1.52;;;1.40;;
30617;SDS011;17384;51.214;9.202;2024-02-04T12:01:33;1.48;;;1.38;;
30617;SDS011;17384;51.214;9.202;2024-02-04T12:04:10;1.23;;;1.10;;
30617;SDS011;17384;51.214;9.202;2024-02-04T12:06:36;1.63;;;1.33;;
30617;SDS011;17384;51.214;9.202;2024-02-04T12:09:03;1.63;;;1.20;;
30617;SDS011;17384;51.214;9.202;2024-02-04T12:11:29;1.45;;;1.25;;
30617;SDS011;17384;51.214;9.202;2024-02-04T12:13:55;1.45;;;1.35;;
30617;SDS011;17384;51.214;9.202;2024-02-04T12:16:21;1.52;;;1.42;;
30617;SDS011;17384;51.214;9.202;2024-02-04T12:18:48;1.70;;;1.60;;
30617;SDS011;17384;51.214;9.202;2024-02-04T12:21:14;2.92;;;1.70;;
30617;SDS011;17384;51.214;9.202;2024-02-04T12:23:40;2.13;;;1.65;;
30617;SDS011;17384;51.214;9.202;2024-02-04T12:26:05;1.60;;;1.50;;
30617;SDS011;17384;51.214;9.202;2024-02-04T12:28:31;1.38;;;1.27;;
30617;SDS011;17384;51.214;9.202;2024-02-04T12:30:56;1.33;;;1.23;;
30617;SDS011;17384;51.214;9.202;2024-02-04T12:33:23;1.55;;;1.45;;
30617;SDS011;17384;51.214;9.202;2024-02-04T12:38:16;2.25;;;1.20;;
30617;SDS011;17384;51.214;9.202;2024-02-04T12:40:45;1.35;;;1.15;;
30617;SDS011;17384;51.214;9.202;2024-02-04T12:43:11;1.52;;;1.08;;
30617;SDS011;17384;51.214;9.202;2024-02-04T12:45:36;1.02;;;1.02;;
30617;SDS011;17384;51.214;9.202;2024-02-04T12:48:02;1.50;;;1.40;;
30617;SDS011;17384;51.214;9.202;2024-02-04T12:50:28;1.67;;;1.20;;
30617;SDS011;17384;51.214;9.202;2024-02-04T12:53:04;1.48;;;1.38;;
30617;SDS011;17384;51.214;9.202;2024-02-04T12:55:31;1.60;;;1.50;;
30617;SDS011;17384;51.214;9.202;2024-02-04T12:58:07;1.88;;;1.77;;
30617;SDS011;17384;51.214;9.202;2024-02-04T13:00:39;2.70;;;1.80;;
30617;SDS011;17384;51.214;9.202;2024-02-04T13:03:05;1.70;;;1.60;;
30617;SDS011;17384;51.214;9.202;2024-02-04T13:05:35;1.60;;;1.50;;
30617;SDS011;17384;51.214;9.202;2024-02-04T13:08:02;1.70;;;1.60;;
30617;SDS011;17384;51.214;9.202;2024-02-04T13:10:30;2.08;;;1.70;;
30617;SDS011;17384;51.214;9.202;2024-02-04T13:13:02;2.28;;;1.90;;
30617;SDS011;17384;51.214;9.202;2024-02-04T13:15:29;1.48;;;1.38;;
30617;SDS011;17384;51.214;9.202;2024-02-04T13:17:56;2.08;;;1.85;;
30617;SDS011;17384;51.214;9.202;2024-02-04T13:20:22;6.43;;;2.00;;
30617;SDS011;17384;51.214;9.202;2024-02-04T13:22:48;4.82;;;1.73;;
30617;SDS011;17384;51.214;9.202;2024-02-04T13:25:14;2.22;;;1.98;;
30617;SDS011;17384;51.214;9.202;2024-02-04T13:27:40;1.90;;;1.80;;
30617;SDS011;17384;51.214;9.202;2024-02-04T13:30:06;2.20;;;2.00;;
30617;SDS011;17384;51.214;9.202;2024-02-04T13:32:40;3.17;;;1.60;;
30617;SDS011;17384;51.214;9.202;2024-02-04T13:35:06;1.30;;;1.20;;
30617;SDS011;17384;51.214;9.202;2024-02-04T13:37:33;1.52;;;1.20;;
30617;SDS011;17384;51.214;9.202;2024-02-04T13:39:59;1.48;;;1.38;;
30617;SDS011;17384;51.214;9.202;2024-02-04T13:42:24;1.35;;;1.10;;
30617;SDS011;17384;51.214;9.202;2024-02-04T13:44:50;1.35;;;1.23;;
30617;SDS011;17384;51.214;9.202;2024-02-04T13:47:15;1.15;;;1.05;;
30617;SDS011;17384;51.214;9.202;2024-02-04T13:49:40;1.90;;;1.08;;
30617;SDS011;17384;51.214;9.202;2024-02-04T13:52:06;1.05;;;0.95;;
30617;SDS011;17384;51.214;9.202;2024-02-04T13:54:31;0.90;;;0.80;;
30617;SDS011;17384;51.214;9.202;2024-02-04T13:56:57;1.60;;;1.10;;
30617;SDS011;17384;51.214;9.202;2024-02-04T13:59:22;1.65;;;1.00;;
30617;SDS011;17384;51.214;9.202;2024-02-04T14:01:47;1.85;;;1.10;;
30617;SDS011;17384;51.214;9.202;2024-02-04T14:04:15;1.52;;;1.05;;
30617;SDS011;17384;51.214;9.202;2024-02-04T14:06:40;0.90;;;0.90;;
30617;SDS011;17384;51.214;9.202;2024-02-04T14:09:05;1.90;;;0.82;;
30617;SDS011;17384;51.214;9.202;2024-02-04T14:11:31;0.80;;;0.80;;
30617;SDS011;17384;51.214;9.202;2024-02-04T14:13:57;1.00;;;0.90;;
30617;SDS011;17384;51.214;9.202;2024-02-04T14:16:22;0.80;;;0.80;;
30617;SDS011;17384;51.214;9.202;2024-02-04T14:18:48;1.13;;;0.90;;
30617;SDS011;17384;51.214;9.202;2024-02-04T14:21:13;1.10;;;1.00;;
30617;SDS011;17384;51.214;9.202;2024-02-04T14:23:41;1.35;;;1.00;;
30617;SDS011;17384;51.214;9.202;2024-02-04T14:26:08;0.93;;;0.85;;
30617;SDS011;17384;51.214;9.202;2024-02-04T14:28:40;1.02;;;0.98;;
30617;SDS011;17384;51.214;9.202;2024-02-04T14:31:06;1.67;;;0.90;;
30617;SDS011;17384;51.214;9.202;2024-02-04T14:33:32;1.05;;;0.90;;
30617;SDS011;17384;51.214;9.202;2024-02-04T14:35:58;1.65;;;0.88;;
30617;SDS011;17384;51.214;9.202;2024-02-04T14:38:25;1.33;;;0.85;;
30617;SDS011;17384;51.214;9.202;2024-02-04T14:40:51;4.53;;;0.93;;
30617;SDS011;17384;51.214;9.202;2024-02-04T14:43:16;0.82;;;0.80;;
30617;SDS011;17384;51.214;9.202;2024-02-04T14:45:43;0.75;;;0.75;;
30617;SDS011;17384;51.214;9.202;2024-02-04T14:48:08;1.13;;;0.88;;
30617;SDS011;17384;51.214;9.202;2024-02-04T14:50:34;4.90;;;0.90;;
30617;SDS011;17384;51.214;9.202;2024-02-04T14:52:59;1.38;;;0.63;;
30617;SDS011;17384;51.214;9.202;2024-02-04T14:55:25;0.70;;;0.70;;
30617;SDS011;17384;51.214;9.202;2024-02-04T14:57:50;0.95;;;0.80;;